Time;durP1;ratioP1;P1;durP2;ratioP2;P2;SDS_P1;SDS_P2;PMS_P1;PMS_P2;Temp;Humidity;BMP_temperature;BMP_pressure;BME280_temperature;BME280_humidity;BME280_pressure;Samples;Min_cycle;Max_cycle;Signal;HPM_P1;HPM_P2
2022/04/03 00:00:58;;;;;;;6.25;3.88;;;;;;;;;;5100966;28;20012;-73
2022/04/03 00:03:24;;;;;;;5.18;3.55;;;;;;;;;;5103496;28;20046;-73
2022/04/03 00:05:50;;;;;;;5.72;4.20;;;;;;;;;;5103815;28;20134;-72
2022/04/03 00:08:16;;;;;;;4.53;3.85;;;;;;;;;;5108096;27;20035;-73
2022/04/03 00:10:45;;;;;;;4.85;3.70;;;;;;;;;;5099656;28;20038;-73
2022/04/03 00:13:11;;;;;;;7.70;3.53;;;;;;;;;;5081182;28;20503;-73
2022/04/03 00:18:47;;;;;;;7.00;3.97;;;;;;;;;;5109631;28;20060;-72
2022/04/03 00:21:14;;;;;;;6.60;4.03;;;;;;;;;;5083422;27;20100;-73
2022/04/03 00:23:40;;;;;;;4.95;3.90;;;;;;;;;;5094980;28;20035;-73
2022/04/03 00:26:06;;;;;;;4.63;3.58;;;;;;;;;;5102405;28;20020;-73
2022/04/03 00:28:32;;;;;;;5.45;3.30;;;;;;;;;;5100953;28;20032;-72
2022/04/03 00:30:59;;;;;;;4.63;3.50;;;;;;;;;;5106606;28;20077;-73
2022/04/03 00:33:25;;;;;;;4.90;3.45;;;;;;;;;;5099076;28;20107;-74
2022/04/03 00:35:51;;;;;;;5.38;3.35;;;;;;;;;;5113282;28;20031;-73
2022/04/03 00:38:17;;;;;;;5.03;3.42;;;;;;;;;;5097572;27;20106;-73
2022/04/03 00:40:47;;;;;;;5.07;3.50;;;;;;;;;;5103960;28;20024;-73
2022/04/03 00:43:13;;;;;;;4.47;3.10;;;;;;;;;;5068117;28;20176;-73
2022/04/03 00:45:43;;;;;;;4.80;3.20;;;;;;;;;;5102563;28;20430;-73
2022/04/03 00:48:10;;;;;;;6.15;3.50;;;;;;;;;;5099003;28;20535;-73
2022/04/03 00:50:37;;;;;;;4.78;3.30;;;;;;;;;;5100960;28;20035;-73
2022/04/03 00:53:03;;;;;;;5.15;3.35;;;;;;;;;;5109874;27;20062;-73
2022/04/03 00:55:29;;;;;;;6.32;3.92;;;;;;;;;;5103879;28;20043;-72
2022/04/03 00:57:57;;;;;;;5.18;3.42;;;;;;;;;;5103611;28;20388;-73
2022/04/03 01:00:23;;;;;;;5.30;3.25;;;;;;;;;;5099100;28;20074;-73
2022/04/03 01:02:49;;;;;;;3.50;3.20;;;;;;;;;;5099416;28;20031;-73
2022/04/03 01:05:16;;;;;;;4.07;2.88;;;;;;;;;;5099200;28;20058;-73
2022/04/03 01:07:43;;;;;;;4.43;3.15;;;;;;;;;;5107655;27;20358;-73
2022/04/03 01:10:09;;;;;;;3.30;2.53;;;;;;;;;;5107306;28;20036;-73
2022/04/03 01:12:42;;;;;;;4.57;2.92;;;;;;;;;;5102704;28;20030;-73
2022/04/03 01:15:09;;;;;;;5.25;3.25;;;;;;;;;;5103324;28;20028;-73
2022/04/03 01:17:35;;;;;;;5.43;3.65;;;;;;;;;;5100185;28;20031;-73
2022/04/03 01:20:01;;;;;;;4.55;3.17;;;;;;;;;;5101076;28;20107;-73
2022/04/03 01:22:27;;;;;;;6.13;3.28;;;;;;;;;;5087420;28;20028;-73
2022/04/03 01:24:56;;;;;;;6.45;3.00;;;;;;;;;;5080565;28;20172;-73
2022/04/03 01:27:22;;;;;;;5.27;3.07;;;;;;;;;;5099334;28;20028;-73
2022/04/03 01:29:49;;;;;;;4.82;3.65;;;;;;;;;;5082828;28;20270;-73
2022/04/03 01:32:15;;;;;;;5.18;2.83;;;;;;;;;;5101738;28;20032;-73
2022/04/03 01:34:41;;;;;;;4.53;2.80;;;;;;;;;;5101176;28;20027;-72
2022/04/03 01:37:07;;;;;;;5.40;3.33;;;;;;;;;;5102086;28;20096;-73
2022/04/03 01:39:33;;;;;;;4.82;3.28;;;;;;;;;;5099105;28;20027;-73
2022/04/03 01:42:00;;;;;;;5.05;3.03;;;;;;;;;;5099246;28;20111;-73
2022/04/03 01:44:26;;;;;;;4.43;3.33;;;;;;;;;;5097319;28;20172;-73
2022/04/03 01:46:52;;;;;;;4.22;3.25;;;;;;;;;;5101947;28;20028;-73
2022/04/03 01:49:18;;;;;;;5.85;3.17;;;;;;;;;;5099653;28;20076;-73
2022/04/03 01:51:44;;;;;;;5.38;3.20;;;;;;;;;;5082113;28;20031;-73
2022/04/03 01:54:10;;;;;;;5.35;3.38;;;;;;;;;;5102279;27;20388;-73
2022/04/03 01:56:37;;;;;;;7.25;3.63;;;;;;;;;;5097978;28;20503;-73
2022/04/03 01:59:03;;;;;;;7.32;2.92;;;;;;;;;;5100402;28;20061;-73
2022/04/03 02:01:33;;;;;;;4.75;3.17;;;;;;;;;;5098562;28;20504;-73
2022/04/03 02:04:00;;;;;;;4.83;3.43;;;;;;;;;;5080559;28;20097;-73
2022/04/03 02:06:26;;;;;;;4.63;3.13;;;;;;;;;;5100891;28;20038;-73
2022/04/03 02:08:52;;;;;;;4.97;3.30;;;;;;;;;;5104785;27;20370;-73
2022/04/03 02:11:18;;;;;;;4.50;3.22;;;;;;;;;;5100285;28;20020;-73
2022/04/03 02:13:44;;;;;;;4.88;3.05;;;;;;;;;;5102201;28;20023;-73
2022/04/03 02:16:10;;;;;;;3.83;3.08;;;;;;;;;;5099539;28;20046;-73
2022/04/03 02:18:36;;;;;;;8.10;3.10;;;;;;;;;;5100084;28;20485;-73
2022/04/03 02:21:02;;;;;;;5.63;3.10;;;;;;;;;;5098539;28;20377;-73
2022/04/03 02:23:28;;;;;;;5.80;3.35;;;;;;;;;;5096943;28;20044;-73
2022/04/03 02:25:55;;;;;;;5.05;3.47;;;;;;;;;;5097730;28;20036;-73
2022/04/03 02:28:21;;;;;;;5.68;3.58;;;;;;;;;;5081783;28;20016;-73
2022/04/03 02:30:47;;;;;;;5.35;3.45;;;;;;;;;;5099161;28;20027;-73
2022/04/03 02:33:13;;;;;;;3.78;3.03;;;;;;;;;;5100826;28;20020;-73
2022/04/03 02:35:39;;;;;;;4.53;3.17;;;;;;;;;;5104778;28;20054;-73
2022/04/03 02:38:05;;;;;;;4.25;3.17;;;;;;;;;;5102022;27;20050;-73
2022/04/03 02:40:31;;;;;;;5.25;3.60;;;;;;;;;;5091955;28;20028;-73
2022/04/03 02:42:58;;;;;;;5.63;4.07;;;;;;;;;;5083907;28;20101;-73
2022/04/03 02:45:24;;;;;;;5.68;3.85;;;;;;;;;;5108447;28;20512;-73
2022/04/03 02:47:50;;;;;;;5.78;3.50;;;;;;;;;;5106524;28;20024;-73
2022/04/03 02:50:17;;;;;;;5.70;3.63;;;;;;;;;;5099775;28;20024;-73
2022/04/03 02:52:44;;;;;;;6.60;3.30;;;;;;;;;;5104451;27;20028;-73
2022/04/03 02:55:11;;;;;;;4.78;3.33;;;;;;;;;;5105533;28;20426;-73
2022/04/03 02:57:37;;;;;;;4.75;3.40;;;;;;;;;;5105034;28;20046;-73
2022/04/03 03:00:04;;;;;;;5.75;3.60;;;;;;;;;;5101903;28;20069;-73
2022/04/03 03:02:31;;;;;;;6.80;3.55;;;;;;;;;;5099611;28;20035;-73
2022/04/03 03:04:57;;;;;;;7.40;4.28;;;;;;;;;;5103434;28;20070;-73
2022/04/03 03:07:24;;;;;;;8.05;3.92;;;;;;;;;;5102939;28;20077;-73
2022/04/03 03:09:50;;;;;;;4.57;3.85;;;;;;;;;;5100491;27;20028;-73
2022/04/03 03:12:17;;;;;;;8.45;4.00;;;;;;;;;;5103946;28;20553;-72
2022/04/03 03:14:43;;;;;;;7.47;4.30;;;;;;;;;;5100733;28;20458;-73
2022/04/03 03:17:09;;;;;;;6.65;3.47;;;;;;;;;;5102482;28;20052;-73
2022/04/03 03:19:35;;;;;;;6.15;3.63;;;;;;;;;;5105822;28;20091;-73
2022/04/03 03:22:01;;;;;;;7.13;3.70;;;;;;;;;;5079512;28;20484;-73
2022/04/03 03:24:27;;;;;;;7.03;3.67;;;;;;;;;;5112497;27;20036;-73
2022/04/03 03:26:53;;;;;;;7.55;3.83;;;;;;;;;;5104831;28;20036;-73
2022/04/03 03:29:19;;;;;;;5.32;3.85;;;;;;;;;;5110404;28;20016;-73
2022/04/03 03:31:45;;;;;;;5.28;3.53;;;;;;;;;;5100033;28;20019;-73
2022/04/03 03:34:11;;;;;;;7.78;3.67;;;;;;;;;;5104933;28;20035;-73
2022/04/03 03:36:37;;;;;;;5.90;3.60;;;;;;;;;;5101765;28;20043;-72
2022/04/03 03:39:03;;;;;;;5.03;3.83;;;;;;;;;;5111374;27;20100;-73
2022/04/03 03:41:29;;;;;;;7.60;3.83;;;;;;;;;;5100605;28;20081;-73
2022/04/03 03:43:55;;;;;;;9.95;3.60;;;;;;;;;;5103558;28;20040;-73
2022/04/03 03:46:21;;;;;;;5.20;3.70;;;;;;;;;;5105581;28;20438;-73
2022/04/03 03:48:47;;;;;;;7.85;4.07;;;;;;;;;;5080663;28;20065;-73
2022/04/03 03:51:14;;;;;;;5.63;3.70;;;;;;;;;;5096892;28;20031;-73
2022/04/03 03:53:41;;;;;;;5.28;3.80;;;;;;;;;;5106873;27;20031;-73
2022/04/03 03:56:07;;;;;;;6.07;3.88;;;;;;;;;;5094861;28;20023;-73
2022/04/03 03:58:33;;;;;;;5.68;4.03;;;;;;;;;;5103696;28;20369;-73
2022/04/03 04:00:59;;;;;;;5.85;4.07;;;;;;;;;;5100094;28;20027;-73
2022/04/03 04:03:25;;;;;;;8.68;4.15;;;;;;;;;;5086864;28;20028;-73
2022/04/03 04:05:51;;;;;;;6.95;4.03;;;;;;;;;;5101507;28;20085;-73
2022/04/03 04:08:17;;;;;;;5.28;3.67;;;;;;;;;;5081494;28;20430;-73
2022/04/03 04:10:43;;;;;;;6.05;3.58;;;;;;;;;;5077127;28;20116;-73
2022/04/03 04:13:09;;;;;;;6.28;4.18;;;;;;;;;;5099601;28;20019;-73
2022/04/03 04:15:35;;;;;;;5.80;3.80;;;;;;;;;;5107228;28;20380;-73
2022/04/03 04:18:01;;;;;;;7.72;3.78;;;;;;;;;;5103813;28;20026;-73
2022/04/03 04:20:28;;;;;;;10.23;4.00;;;;;;;;;;5102113;28;20051;-73
2022/04/03 04:22:54;;;;;;;7.45;4.22;;;;;;;;;;5105191;28;20039;-73
2022/04/03 04:25:20;;;;;;;6.47;4.35;;;;;;;;;;5110947;27;20038;-73
2022/04/03 04:27:47;;;;;;;7.63;3.92;;;;;;;;;;5099419;28;20119;-74
2022/04/03 04:30:14;;;;;;;7.40;4.50;;;;;;;;;;5107377;28;20476;-73
2022/04/03 04:32:40;;;;;;;6.75;3.92;;;;;;;;;;5103334;28;20475;-73
2022/04/03 04:35:07;;;;;;;7.63;4.00;;;;;;;;;;5081215;28;20239;-74
2022/04/03 04:37:33;;;;;;;7.88;4.22;;;;;;;;;;5079115;28;20028;-73
2022/04/03 04:39:59;;;;;;;6.70;3.97;;;;;;;;;;5099623;28;20040;-74
2022/04/03 04:42:25;;;;;;;6.70;4.10;;;;;;;;;;5103075;28;20074;-74
2022/04/03 04:44:51;;;;;;;6.78;4.05;;;;;;;;;;5102659;28;20102;-74
2022/04/03 04:47:17;;;;;;;7.95;3.90;;;;;;;;;;5103065;28;20127;-73
2022/04/03 04:49:43;;;;;;;9.05;4.50;;;;;;;;;;5098916;28;20038;-73
2022/04/03 04:52:09;;;;;;;7.43;4.30;;;;;;;;;;5097774;28;20019;-73
2022/04/03 04:54:35;;;;;;;6.45;3.92;;;;;;;;;;5077073;28;20114;-75
2022/04/03 04:57:02;;;;;;;7.25;3.72;;;;;;;;;;5102685;28;20051;-74
2022/04/03 04:59:28;;;;;;;9.05;4.80;;;;;;;;;;5084355;28;20031;-74
2022/04/03 05:01:59;;;;;;;6.95;4.47;;;;;;;;;;5098575;28;20106;-73
2022/04/03 05:04:25;;;;;;;6.38;4.38;;;;;;;;;;5100774;28;20040;-73
2022/04/03 05:06:52;;;;;;;7.00;4.65;;;;;;;;;;5100227;28;20020;-73
2022/04/03 05:09:18;;;;;;;6.25;4.28;;;;;;;;;;5100095;27;20031;-74
2022/04/03 05:11:46;;;;;;;7.57;4.35;;;;;;;;;;5106041;28;20422;-73
2022/04/03 05:14:13;;;;;;;7.03;4.15;;;;;;;;;;5108755;28;20020;-73
2022/04/03 05:16:39;;;;;;;7.65;4.13;;;;;;;;;;5078851;28;20031;-73
2022/04/03 05:19:05;;;;;;;7.40;4.28;;;;;;;;;;5091864;28;20508;-73
2022/04/03 05:21:31;;;;;;;6.93;4.35;;;;;;;;;;5092508;28;20043;-73
2022/04/03 05:23:57;;;;;;;6.50;3.97;;;;;;;;;;5112058;28;20111;-74
2022/04/03 05:26:24;;;;;;;8.15;4.25;;;;;;;;;;5101515;28;20499;-73
2022/04/03 05:28:51;;;;;;;7.78;4.28;;;;;;;;;;5098223;28;20499;-74
2022/04/03 05:31:17;;;;;;;5.05;3.83;;;;;;;;;;5100814;28;20027;-74
2022/04/03 05:33:43;;;;;;;6.50;4.25;;;;;;;;;;5097030;28;20020;-73
2022/04/03 05:36:09;;;;;;;6.15;4.20;;;;;;;;;;5106057;28;20062;-74
2022/04/03 05:38:35;;;;;;;6.28;4.55;;;;;;;;;;5099228;28;20099;-73
2022/04/03 05:41:01;;;;;;;6.88;4.28;;;;;;;;;;5105278;27;20149;-74
2022/04/03 05:43:27;;;;;;;7.68;4.60;;;;;;;;;;5101226;28;20497;-73
2022/04/03 05:45:53;;;;;;;8.60;4.63;;;;;;;;;;5105225;28;20016;-74
2022/04/03 05:48:19;;;;;;;10.23;4.80;;;;;;;;;;5106452;28;20053;-73
2022/04/03 05:50:45;;;;;;;5.75;4.22;;;;;;;;;;5085092;28;20063;-74
2022/04/03 05:53:12;;;;;;;6.80;4.60;;;;;;;;;;5099910;28;20046;-74
2022/04/03 05:55:38;;;;;;;11.40;5.57;;;;;;;;;;5101194;27;20051;-73
2022/04/03 05:58:04;;;;;;;8.23;5.22;;;;;;;;;;5097129;28;20032;-73
2022/04/03 06:00:31;;;;;;;9.25;4.93;;;;;;;;;;5087168;28;20028;-73
2022/04/03 06:03:02;;;;;;;6.43;4.55;;;;;;;;;;5107710;28;20019;-75
2022/04/03 06:05:35;;;;;;;9.20;4.85;;;;;;;;;;5089995;28;20023;-72
2022/04/03 06:08:04;;;;;;;6.85;4.28;;;;;;;;;;5071742;28;20362;-73
2022/04/03 06:10:30;;;;;;;7.85;4.93;;;;;;;;;;5097070;27;20286;-74
2022/04/03 06:13:07;;;;;;;11.02;5.28;;;;;;;;;;5109902;28;20550;-75
2022/04/03 06:15:37;;;;;;;9.38;4.97;;;;;;;;;;5111766;28;20027;-73
2022/04/03 06:18:14;;;;;;;7.68;4.25;;;;;;;;;;5113105;28;20110;-73
2022/04/03 06:26:47;;;;;;;9.07;5.00;;;;;;;;;;5108833;28;20082;-73
2022/04/03 06:29:13;;;;;;;11.02;5.28;;;;;;;;;;5108019;28;20048;-73
2022/04/03 06:31:39;;;;;;;8.63;5.10;;;;;;;;;;5106904;28;20442;-73
2022/04/03 06:34:05;;;;;;;10.82;4.90;;;;;;;;;;5107116;28;20028;-74
2022/04/03 06:36:31;;;;;;;9.40;4.60;;;;;;;;;;5105470;28;20380;-73
2022/04/03 06:38:57;;;;;;;6.25;4.32;;;;;;;;;;5107606;28;20024;-76
2022/04/03 06:41:23;;;;;;;8.30;4.70;;;;;;;;;;5087056;28;20419;-74
2022/04/03 06:43:49;;;;;;;4.40;3.72;;;;;;;;;;5107337;28;20035;-74
2022/04/03 06:46:18;;;;;;;14.20;4.75;;;;;;;;;;5106387;28;20031;-75
2022/04/03 06:48:44;;;;;;;8.13;5.03;;;;;;;;;;5085394;28;20031;-73
2022/04/03 06:51:10;;;;;;;7.88;5.03;;;;;;;;;;5110590;28;20350;-73
2022/04/03 06:53:36;;;;;;;6.93;4.22;;;;;;;;;;5089019;28;20022;-73
2022/04/03 06:56:02;;;;;;;7.38;4.38;;;;;;;;;;5106911;28;20028;-73
2022/04/03 06:58:28;;;;;;;9.27;4.97;;;;;;;;;;5089275;28;20373;-73
2022/04/03 07:00:55;;;;;;;7.03;4.55;;;;;;;;;;5107994;28;20028;-73
2022/04/03 07:03:21;;;;;;;9.68;4.35;;;;;;;;;;5106212;28;20089;-74
2022/04/03 07:05:48;;;;;;;7.18;4.45;;;;;;;;;;5106138;28;20024;-73
2022/04/03 07:08:14;;;;;;;8.00;4.55;;;;;;;;;;5087387;28;20392;-73
2022/04/03 07:10:40;;;;;;;8.20;4.90;;;;;;;;;;5106483;28;20034;-72
2022/04/03 07:13:06;;;;;;;6.47;4.10;;;;;;;;;;5103999;28;20034;-73
2022/04/03 07:15:32;;;;;;;6.82;4.22;;;;;;;;;;5107414;28;20110;-73
2022/04/03 07:17:58;;;;;;;6.88;3.78;;;;;;;;;;5087667;28;20020;-73
2022/04/03 07:20:25;;;;;;;7.22;3.65;;;;;;;;;;5088209;28;20043;-73
2022/04/03 07:22:51;;;;;;;7.13;4.45;;;;;;;;;;5109487;28;20395;-74
2022/04/03 07:25:17;;;;;;;12.15;3.70;;;;;;;;;;5109658;27;20593;-73
2022/04/03 07:27:43;;;;;;;7.15;3.83;;;;;;;;;;5090695;28;20027;-73
2022/04/03 07:30:11;;;;;;;6.47;3.63;;;;;;;;;;5110739;28;20088;-73
2022/04/03 07:32:38;;;;;;;12.32;3.90;;;;;;;;;;5110324;28;20043;-73
2022/04/03 07:35:04;;;;;;;6.25;3.75;;;;;;;;;;5110138;28;20118;-73
2022/04/03 07:37:30;;;;;;;7.55;4.15;;;;;;;;;;5110376;28;20046;-73
2022/04/03 07:39:57;;;;;;;4.28;3.53;;;;;;;;;;5109416;28;20059;-73
2022/04/03 07:42:23;;;;;;;8.75;4.15;;;;;;;;;;5109367;27;20031;-73
2022/04/03 07:44:49;;;;;;;10.05;4.03;;;;;;;;;;5109174;28;20032;-74
2022/04/03 07:47:15;;;;;;;9.05;3.67;;;;;;;;;;5110644;28;20032;-73
2022/04/03 07:49:42;;;;;;;5.63;3.50;;;;;;;;;;5111699;28;20027;-73
2022/04/03 07:52:08;;;;;;;7.55;3.33;;;;;;;;;;5110599;28;20316;-72
2022/04/03 07:54:35;;;;;;;7.72;3.25;;;;;;;;;;5110643;28;20031;-74
2022/04/03 07:57:01;;;;;;;6.50;3.40;;;;;;;;;;5108414;27;20560;-73
2022/04/03 07:59:27;;;;;;;7.22;3.45;;;;;;;;;;5109640;28;20020;-73
2022/04/03 08:01:53;;;;;;;6.28;2.95;;;;;;;;;;5110463;28;20072;-73
2022/04/03 08:04:19;;;;;;;5.50;3.40;;;;;;;;;;5107229;28;20028;-73
2022/04/03 08:06:45;;;;;;;7.53;3.33;;;;;;;;;;5092478;28;20825;-73
2022/04/03 08:09:12;;;;;;;4.88;3.63;;;;;;;;;;5092027;28;20074;-73
2022/04/03 08:11:40;;;;;;;5.25;3.33;;;;;;;;;;5109270;27;20118;-73
2022/04/03 08:14:06;;;;;;;7.20;3.42;;;;;;;;;;5133419;27;20062;-72
2022/04/03 08:16:32;;;;;;;6.28;3.22;;;;;;;;;;5115005;27;20514;-72
2022/04/03 08:19:00;;;;;;;8.25;3.88;;;;;;;;;;5132771;27;20019;-73
2022/04/03 08:21:26;;;;;;;6.30;3.47;;;;;;;;;;5132502;27;20042;-72
2022/04/03 08:23:53;;;;;;;7.35;3.00;;;;;;;;;;5131603;27;20514;-73
2022/04/03 08:26:25;;;;;;;5.90;3.70;;;;;;;;;;5131559;27;20058;-73
2022/04/03 08:28:51;;;;;;;6.68;3.25;;;;;;;;;;5132842;27;20027;-73
2022/04/03 08:31:17;;;;;;;9.93;4.28;;;;;;;;;;5132137;27;20060;-72
2022/04/03 08:33:43;;;;;;;6.05;3.47;;;;;;;;;;5131131;27;20508;-72
2022/04/03 08:36:09;;;;;;;6.50;3.78;;;;;;;;;;5130315;27;20031;-72
2022/04/03 08:38:35;;;;;;;6.75;3.88;;;;;;;;;;5111364;28;20409;-72
2022/04/03 08:41:01;;;;;;;6.25;3.70;;;;;;;;;;5113114;27;20023;-72
2022/04/03 08:43:28;;;;;;;4.13;3.00;;;;;;;;;;5131798;27;20480;-73
2022/04/03 08:45:54;;;;;;;6.88;3.10;;;;;;;;;;5126680;27;20031;-73
2022/04/03 08:48:22;;;;;;;12.75;4.18;;;;;;;;;;5111114;28;20020;-72
2022/04/03 08:50:49;;;;;;;6.25;3.70;;;;;;;;;;5111734;28;20473;-73
2022/04/03 08:53:15;;;;;;;6.53;3.55;;;;;;;;;;5111166;28;20088;-73
2022/04/03 08:55:41;;;;;;;9.52;3.40;;;;;;;;;;5111556;28;20099;-73
2022/04/03 08:58:07;;;;;;;5.05;3.78;;;;;;;;;;5093217;28;20036;-73
2022/04/03 09:00:33;;;;;;;6.82;3.30;;;;;;;;;;5111718;28;20054;-73
2022/04/03 09:03:00;;;;;;;6.05;3.88;;;;;;;;;;5111387;28;20453;-73
2022/04/03 09:05:37;;;;;;;9.55;3.70;;;;;;;;;;5112040;28;20089;-73
2022/04/03 09:08:03;;;;;;;4.35;3.53;;;;;;;;;;5093343;28;20015;-72
2022/04/03 09:10:30;;;;;;;11.55;3.92;;;;;;;;;;5110090;28;20383;-73
2022/04/03 09:12:56;;;;;;;7.60;3.80;;;;;;;;;;5105551;27;20035;-73
2022/04/03 09:15:23;;;;;;;9.93;3.80;;;;;;;;;;5109474;28;20021;-73
2022/04/03 09:17:52;;;;;;;7.80;3.35;;;;;;;;;;5110995;28;20515;-73
2022/04/03 09:20:32;;;;;;;5.18;3.60;;;;;;;;;;5091841;28;20027;-72
2022/04/03 09:22:59;;;;;;;5.82;3.58;;;;;;;;;;5092771;28;20081;-74
2022/04/03 09:25:27;;;;;;;4.65;3.28;;;;;;;;;;5110870;28;20070;-73
2022/04/03 09:27:54;;;;;;;4.93;3.75;;;;;;;;;;5124168;27;20058;-73
2022/04/03 09:30:22;;;;;;;8.57;4.18;;;;;;;;;;5132088;27;20019;-73
2022/04/03 09:32:54;;;;;;;4.40;3.05;;;;;;;;;;5112406;27;20391;-73
2022/04/03 09:35:21;;;;;;;4.68;3.15;;;;;;;;;;5131330;27;20622;-73
2022/04/03 09:38:06;;;;;;;4.15;3.17;;;;;;;;;;5130738;27;20035;-73
2022/04/03 09:40:32;;;;;;;7.10;3.15;;;;;;;;;;5112719;27;20031;-73
2022/04/03 09:43:19;;;;;;;4.75;3.08;;;;;;;;;;5129273;27;20072;-73
2022/04/03 09:45:49;;;;;;;4.93;3.08;;;;;;;;;;5126633;27;20040;-73
2022/04/03 09:48:19;;;;;;;5.72;3.38;;;;;;;;;;5110318;28;20106;-73
2022/04/03 09:50:46;;;;;;;;;;;;;;;;;;5111036;28;20019;-73
2022/04/03 09:53:12;;;;;;;5.90;3.05;;;;;;;;;;5091905;28;20344;-73
2022/04/03 09:55:41;;;;;;;4.95;3.28;;;;;;;;;;5091719;28;20055;-73
2022/04/03 09:58:07;;;;;;;5.50;2.50;;;;;;;;;;5123625;27;20064;-73
2022/04/03 10:00:42;;;;;;;4.75;2.85;;;;;;;;;;5115663;27;20502;-73
2022/04/03 10:06:12;;;;;;;4.28;2.42;;;;;;;;;;5132711;27;20042;-79
2022/04/03 10:08:41;;;;;;;4.07;2.22;;;;;;;;;;5130481;27;20449;-79
2022/04/03 10:11:09;;;;;;;5.50;2.58;;;;;;;;;;5130475;27;20019;-81
2022/04/03 10:13:36;;;;;;;2.90;2.42;;;;;;;;;;5119889;27;20536;-81
2022/04/03 10:16:02;;;;;;;6.68;2.70;;;;;;;;;;5106517;28;20432;-80
2022/04/03 10:18:28;;;;;;;6.15;2.90;;;;;;;;;;5109216;28;20392;-83
2022/04/03 10:20:54;;;;;;;4.60;2.80;;;;;;;;;;5099697;28;20034;-83
2022/04/03 10:23:22;;;;;;;3.80;2.67;;;;;;;;;;5085532;28;20033;-84
2022/04/03 10:25:48;;;;;;;3.50;2.60;;;;;;;;;;5101841;28;20030;-84
2022/04/03 10:28:18;;;;;;;4.30;2.65;;;;;;;;;;5096671;22;21246;-79
2022/04/03 10:30:44;;;;;;;3.60;2.35;;;;;;;;;;5078549;28;20132;-79
2022/04/03 10:33:20;;;;;;;4.22;2.53;;;;;;;;;;5087626;28;20060;-80
2022/04/03 10:35:49;;;;;;;4.18;2.60;;;;;;;;;;5089618;28;20031;-79
2022/04/03 10:38:15;;;;;;;4.50;2.23;;;;;;;;;;5089853;28;20034;-78
2022/04/03 10:40:55;;;;;;;5.40;2.50;;;;;;;;;;5089873;28;20116;-79
2022/04/03 10:43:31;;;;;;;4.07;2.38;;;;;;;;;;5088873;28;20477;-79
2022/04/03 10:45:57;;;;;;;5.00;2.03;;;;;;;;;;5075250;28;20388;-79
2022/04/03 10:48:27;;;;;;;4.55;2.40;;;;;;;;;;5089378;28;20031;-79
2022/04/03 10:50:56;;;;;;;4.32;2.22;;;;;;;;;;5089849;28;20028;-80
2022/04/03 10:53:32;;;;;;;6.85;2.00;;;;;;;;;;5089118;28;20028;-78
2022/04/03 10:56:07;;;;;;;5.82;2.17;;;;;;;;;;5080544;28;20082;-79
2022/04/03 10:58:42;;;;;;;11.13;2.10;;;;;;;;;;5092941;28;20031;-80
2022/04/03 11:01:11;;;;;;;2.92;2.17;;;;;;;;;;5113960;28;20285;-80
2022/04/03 11:03:37;;;;;;;4.57;2.50;;;;;;;;;;5113456;28;20027;-79
2022/04/03 11:06:20;;;;;;;6.20;2.55;;;;;;;;;;5094884;28;20024;-79
2022/04/03 11:08:54;;;;;;;3.17;2.00;;;;;;;;;;5073404;28;20024;-80
2022/04/03 11:11:31;;;;;;;5.75;1.98;;;;;;;;;;5055251;28;20028;-80
2022/04/03 11:13:57;;;;;;;4.60;2.05;;;;;;;;;;5081834;28;20039;-78
2022/04/03 11:16:23;;;;;;;9.98;3.72;;;;;;;;;;5094904;28;20027;-79
2022/04/03 11:18:51;;;;;;;14.85;5.15;;;;;;;;;;5113263;28;20465;-79
2022/04/03 11:21:17;;;;;;;3.70;2.17;;;;;;;;;;5083654;28;20020;-79
2022/04/03 11:23:55;;;;;;;3.80;2.58;;;;;;;;;;5081838;28;20037;-79
2022/04/03 11:26:21;;;;;;;4.93;1.92;;;;;;;;;;5079490;28;20373;-78
2022/04/03 11:28:47;;;;;;;4.57;2.65;;;;;;;;;;5081061;28;20034;-79
2022/04/03 11:31:14;;;;;;;4.32;2.30;;;;;;;;;;5084739;28;20173;-80
2022/04/03 11:33:40;;;;;;;3.05;2.33;;;;;;;;;;5083120;28;20028;-78
2022/04/03 11:36:10;;;;;;;2.83;2.13;;;;;;;;;;5081454;28;20453;-79
2022/04/03 11:38:36;;;;;;;;;;;;;;;;;;5082607;28;20354;-78
2022/04/03 11:41:07;;;;;;;6.97;2.33;;;;;;;;;;5083774;28;19903;-78
2022/04/03 11:43:33;;;;;;;4.13;1.75;;;;;;;;;;5085833;28;20032;-78
2022/04/03 11:46:01;;;;;;;3.75;2.10;;;;;;;;;;5089244;28;20032;-78
2022/04/03 11:48:29;;;;;;;3.53;2.40;;;;;;;;;;5077789;28;20039;-76
2022/04/03 11:51:11;;;;;;;6.25;2.40;;;;;;;;;;5092838;28;20028;-77
2022/04/03 11:53:38;;;;;;;6.45;2.45;;;;;;;;;;5072491;28;20474;-76
2022/04/03 11:56:11;;;;;;;4.93;2.38;;;;;;;;;;5073443;28;20119;-76
2022/04/03 11:58:43;;;;;;;3.28;2.38;;;;;;;;;;5073889;28;20024;-75
2022/04/03 12:01:10;;;;;;;4.70;2.38;;;;;;;;;;5084162;28;20146;-76
2022/04/03 12:03:37;;;;;;;3.90;2.25;;;;;;;;;;5088008;28;20067;-75
2022/04/03 12:06:19;;;;;;;4.30;2.25;;;;;;;;;;5094505;28;20020;-75
2022/04/03 12:08:46;;;;;;;3.13;2.30;;;;;;;;;;5089132;28;20039;-75
2022/04/03 12:11:16;;;;;;;5.47;2.45;;;;;;;;;;5094921;28;20500;-76
2022/04/03 12:13:42;;;;;;;5.68;2.47;;;;;;;;;;5078993;28;20025;-76
2022/04/03 12:16:08;;;;;;;4.57;2.20;;;;;;;;;;5100070;28;20026;-75
2022/04/03 12:18:50;;;;;;;6.32;2.35;;;;;;;;;;5094273;28;20032;-75
2022/04/03 12:21:17;;;;;;;6.38;2.40;;;;;;;;;;5094276;28;20024;-76
2022/04/03 12:24:06;;;;;;;6.90;2.67;;;;;;;;;;5094104;28;20032;-75
2022/04/03 12:26:32;;;;;;;3.15;2.10;;;;;;;;;;5089920;28;20357;-75
2022/04/03 12:28:58;;;;;;;4.72;2.40;;;;;;;;;;5084020;28;20492;-76
2022/04/03 12:31:28;;;;;;;6.05;2.63;;;;;;;;;;5090683;28;20606;-75
2022/04/03 12:34:06;;;;;;;4.80;2.25;;;;;;;;;;5063434;28;20035;-75
2022/04/03 12:36:37;;;;;;;3.45;2.03;;;;;;;;;;5064409;28;20029;-79
2022/04/03 12:39:03;;;;;;;5.18;2.58;;;;;;;;;;5086883;28;20021;-78
2022/04/03 12:41:29;;;;;;;3.67;2.30;;;;;;;;;;5092143;28;20042;-78
2022/04/03 12:43:59;;;;;;;5.25;2.40;;;;;;;;;;5079696;28;20474;-78
2022/04/03 12:46:35;;;;;;;3.70;2.45;;;;;;;;;;5092277;28;20038;-78
2022/04/03 12:49:01;;;;;;;3.35;2.17;;;;;;;;;;5083392;28;20060;-78
2022/04/03 12:51:27;;;;;;;6.88;2.33;;;;;;;;;;5075329;28;20518;-77
2022/04/03 12:53:57;;;;;;;5.22;2.58;;;;;;;;;;5080932;28;20116;-77
2022/04/03 12:58:24;;;;;;;6.80;2.97;;;;;;;;;;5079575;28;20485;-77
2022/04/03 12:59:20;;;;;;;3.00;2.38;;;;;;;;;;5082806;28;20021;-77
2022/04/03 13:01:51;;;;;;;5.72;2.92;;;;;;;;;;5084917;28;20400;-78
2022/04/03 13:04:30;;;;;;;7.72;2.40;;;;;;;;;;5079814;28;20381;-77
2022/04/03 13:06:56;;;;;;;6.72;2.03;;;;;;;;;;5080191;28;20020;-77
2022/04/03 13:09:22;;;;;;;6.25;2.80;;;;;;;;;;5070974;28;20028;-78
2022/04/03 13:11:53;;;;;;;10.60;3.45;;;;;;;;;;5060088;28;20020;-77
2022/04/03 13:14:26;;;;;;;2.95;2.00;;;;;;;;;;5083347;28;20025;-77
2022/04/03 13:16:53;;;;;;;7.45;2.60;;;;;;;;;;5089088;28;20115;-77
2022/04/03 13:19:21;;;;;;;3.88;2.58;;;;;;;;;;5090413;28;20047;-76
2022/04/03 13:21:47;;;;;;;5.22;2.90;;;;;;;;;;5090526;28;20039;-76
2022/04/03 13:24:13;;;;;;;3.55;2.45;;;;;;;;;;5073094;28;20036;-76
2022/04/03 13:26:39;;;;;;;6.13;2.63;;;;;;;;;;5091026;28;20020;-76
2022/04/03 13:29:07;;;;;;;5.15;2.67;;;;;;;;;;5090941;28;20556;-76
2022/04/03 13:31:34;;;;;;;7.07;3.05;;;;;;;;;;5090116;28;20103;-77
2022/04/03 13:34:01;;;;;;;5.35;2.70;;;;;;;;;;5090939;28;20016;-76
2022/04/03 13:36:27;;;;;;;3.50;2.30;;;;;;;;;;5091376;28;20546;-76
2022/04/03 13:38:55;;;;;;;8.88;2.83;;;;;;;;;;5090918;28;20075;-76
2022/04/03 13:41:21;;;;;;;4.25;2.80;;;;;;;;;;5090347;28;20066;-76
2022/04/03 13:43:47;;;;;;;8.75;3.60;;;;;;;;;;5091140;28;20056;-75
2022/04/03 13:46:14;;;;;;;3.38;2.53;;;;;;;;;;5083900;28;20204;-76
2022/04/03 13:48:40;;;;;;;7.53;2.80;;;;;;;;;;5070515;28;20037;-76
2022/04/03 13:51:07;;;;;;;4.72;2.78;;;;;;;;;;5078711;28;20020;-77
2022/04/03 13:53:34;;;;;;;5.45;2.15;;;;;;;;;;5076307;28;20029;-76
2022/04/03 13:56:00;;;;;;;3.83;2.17;;;;;;;;;;5078823;28;20024;-76
2022/04/03 13:58:26;;;;;;;9.85;3.10;;;;;;;;;;5082632;28;20035;-76
2022/04/03 14:01:03;;;;;;;12.80;4.78;;;;;;;;;;5082407;28;20020;-76
2022/04/03 14:03:29;;;;;;;4.13;2.30;;;;;;;;;;5079030;28;20027;-76
2022/04/03 14:05:56;;;;;;;5.82;2.83;;;;;;;;;;5078922;28;20273;-76
2022/04/03 14:08:22;;;;;;;6.50;2.50;;;;;;;;;;5079115;28;20443;-76
2022/04/03 14:10:49;;;;;;;6.00;2.50;;;;;;;;;;5081821;28;20031;-76
2022/04/03 14:13:16;;;;;;;3.65;2.47;;;;;;;;;;5082066;28;20027;-76
2022/04/03 14:15:42;;;;;;;8.30;2.20;;;;;;;;;;5081233;28;20035;-75
2022/04/03 14:18:08;;;;;;;6.13;2.90;;;;;;;;;;5081813;28;20419;-76
2022/04/03 14:20:34;;;;;;;6.25;2.80;;;;;;;;;;5077695;28;20041;-76
2022/04/03 14:23:01;;;;;;;3.40;1.98;;;;;;;;;;5075076;28;20537;-76
2022/04/03 14:25:27;;;;;;;7.32;3.20;;;;;;;;;;5078387;28;20043;-76
2022/04/03 14:27:53;;;;;;;4.25;2.40;;;;;;;;;;5086282;28;20378;-77
2022/04/03 14:30:19;;;;;;;3.03;2.20;;;;;;;;;;5077570;28;20029;-76
2022/04/03 14:32:48;;;;;;;5.63;2.10;;;;;;;;;;5072910;28;20036;-76
2022/04/03 14:35:15;;;;;;;3.67;2.55;;;;;;;;;;5082229;28;20033;-76
2022/04/03 14:37:41;;;;;;;4.05;2.30;;;;;;;;;;5074454;28;20078;-76
2022/04/03 14:40:08;;;;;;;2.97;1.85;;;;;;;;;;5078842;28;20074;-76
2022/04/03 14:42:34;;;;;;;2.67;1.90;;;;;;;;;;5060003;28;20123;-76
2022/04/03 14:45:00;;;;;;;4.97;2.58;;;;;;;;;;5078252;28;20108;-76
2022/04/03 14:47:26;;;;;;;3.20;2.30;;;;;;;;;;5083290;28;20093;-76
2022/04/03 14:49:52;;;;;;;5.82;2.40;;;;;;;;;;5073507;28;20036;-76
2022/04/03 14:52:19;;;;;;;3.83;2.17;;;;;;;;;;5086568;28;20032;-76
2022/04/03 14:54:45;;;;;;;3.47;2.20;;;;;;;;;;5066792;28;20473;-76
2022/04/03 14:57:11;;;;;;;2.83;2.13;;;;;;;;;;5060044;28;20551;-75